»·PEaware :: WAT169 KLAS-KRNO

WAT169 :: KLAS-KRNO

FLIGHT INFORMATION

Flight Status: Arrived
Operator:
Walker Air Transport
More flights by this operator :: More flights under this callsign
Pilot: Marty P. (27464)
Aircraft: BOEING 737-800
(B738)
More flights by this aircraft type
Origin: KLAS McCarran Intl
United States
Destination: KRNO Reno/Tahoe Intl
United States
More flights between these airports :: More routes between these airports
Route: +SHEAD1 KENNO KENNO2
File this flight plan on PilotEdge
Remarks:
Altitude:
(Current/Filed)
32,000ft
Speed:
(Current/Filed)
480kts
Departed: 08-Nov-20 08:40 AM
Arrived: 08-Nov-20 09:39 AM
Distance/Time
Traveled:
300nm/0:59
Distance/Time
To Go:
Arrived

Flight Plot

Page will automatically refresh every two minutes.

Flight plan parsing failed; only flown route is shown


Map Options




Map Legend


Flown Route
Filed Route
Departure Airport
Arrival Airport
Navaid (VOR, NDB)
Fix

Horizontal Profiles

Position Reports

Time Latitude Longitude Heading Altitude Ground
Speed
08-Nov-20 08:13 36.081006 -115.147687 66 2100ft 0kts
08-Nov-20 08:14 36.081006 -115.147687 66 2100ft 0kts
08-Nov-20 08:15 36.081005 -115.147687 66 2099ft 0kts
08-Nov-20 08:16 36.081005 -115.147687 66 2099ft 0kts
08-Nov-20 08:17 36.081005 -115.147687 66 2099ft 0kts
08-Nov-20 08:18 36.081005 -115.147687 66 2099ft 0kts
08-Nov-20 08:19 36.081005 -115.147687 66 2099ft 0kts
08-Nov-20 08:20 36.081005 -115.147687 66 2099ft 0kts
08-Nov-20 08:21 36.081005 -115.147687 66 2099ft 0kts
08-Nov-20 08:22 36.081005 -115.147687 66 2099ft 0kts
08-Nov-20 08:23 36.081005 -115.147687 66 2099ft 0kts
08-Nov-20 08:24 36.081005 -115.147688 66 2099ft 0kts
08-Nov-20 08:25 36.081005 -115.147688 66 2099ft 0kts
08-Nov-20 08:26 36.080981 -115.147757 66 2099ft 2kts
08-Nov-20 08:27 36.080954 -115.148440 139 2102ft 2kts
08-Nov-20 08:28 36.081080 -115.148529 156 2102ft 0kts
08-Nov-20 08:29 36.081080 -115.148529 156 2102ft 0kts
08-Nov-20 08:30 36.080387 -115.148130 155 2102ft 0kts
08-Nov-20 08:31 36.078225 -115.147112 163 2102ft 16kts
08-Nov-20 08:32 36.077533 -115.140409 90 2082ft 23kts
08-Nov-20 08:33 36.077537 -115.133967 90 2063ft 19kts
08-Nov-20 08:34 36.077541 -115.127169 89 2048ft 19kts
08-Nov-20 08:35 36.077547 -115.122162 89 2039ft 10kts
08-Nov-20 08:36 36.077440 -115.121550 127 2039ft 0kts
08-Nov-20 08:37 36.077369 -115.121417 133 2039ft 0kts
08-Nov-20 08:38 36.076437 -115.121957 269 2041ft 13kts
08-Nov-20 08:39 36.077066 -115.160724 267 2743ft 165kts
08-Nov-20 08:40 36.074294 -115.227345 249 4527ft 231kts
08-Nov-20 08:41 36.025419 -115.277166 199 7028ft 260kts
08-Nov-20 08:42 35.961629 -115.313618 219 8405ft 256kts
08-Nov-20 08:43 35.911911 -115.374010 229 9092ft 249kts
08-Nov-20 08:44 35.886044 -115.453103 265 11007ft 251kts
08-Nov-20 08:45 35.888349 -115.541258 268 11026ft 288kts
08-Nov-20 08:46 35.890683 -115.660752 268 11138ft 402kts
08-Nov-20 08:47 35.892922 -115.788420 269 16940ft 345kts
08-Nov-20 08:48 35.894918 -115.908219 271 18963ft 357kts
08-Nov-20 08:49 35.933105 -116.010638 306 18722ft 315kts
08-Nov-20 08:50 35.997358 -116.087614 309 20017ft 329kts
08-Nov-20 08:51 36.065266 -116.165954 309 22403ft 339kts
08-Nov-20 08:52 36.135396 -116.246901 309 24553ft 352kts
08-Nov-20 08:53 36.208194 -116.331106 309 26397ft 365kts
08-Nov-20 08:54 36.283396 -116.418307 309 28011ft 378kts
08-Nov-20 08:55 36.361372 -116.508951 309 29499ft 390kts
08-Nov-20 08:56 36.441365 -116.602172 309 30929ft 398kts
08-Nov-20 08:57 36.522497 -116.697882 309 31707ft 413kts
08-Nov-20 08:58 36.616763 -116.784642 320 31706ft 424kts
08-Nov-20 08:59 36.716527 -116.862863 321 31706ft 425kts
08-Nov-20 09:00 36.817409 -116.940208 322 31695ft 425kts
08-Nov-20 09:01 36.918280 -117.017289 322 31669ft 426kts
08-Nov-20 09:03 37.018949 -117.094398 323 31699ft 425kts
08-Nov-20 09:04 37.119743 -117.171790 323 31700ft 425kts
08-Nov-20 09:05 37.220542 -117.249418 323 31678ft 425kts
08-Nov-20 09:06 37.317709 -117.332923 316 31661ft 421kts
08-Nov-20 09:07 37.406167 -117.425888 316 31661ft 412kts
08-Nov-20 09:08 37.495086 -117.517109 322 31662ft 418kts
08-Nov-20 09:09 37.592073 -117.596551 324 31661ft 416kts
08-Nov-20 09:10 37.690881 -117.675358 324 31660ft 432kts
08-Nov-20 09:11 37.794433 -117.757762 324 31662ft 451kts
08-Nov-20 09:12 37.900724 -117.842411 325 31651ft 451kts
08-Nov-20 09:13 38.006501 -117.926928 325 31668ft 450kts
08-Nov-20 09:14 38.111497 -118.011110 325 31682ft 451kts
08-Nov-20 09:15 38.217442 -118.096342 325 31688ft 450kts
08-Nov-20 09:16 38.322888 -118.181468 325 31712ft 449kts
08-Nov-20 09:16 38.408544 -118.255513 318 31743ft 446kts
08-Nov-20 09:18 38.512227 -118.377519 315 30134ft 421kts
08-Nov-20 09:18 38.581670 -118.462608 314 28055ft 415kts
08-Nov-20 09:20 38.680051 -118.584231 314 25182ft 426kts
08-Nov-20 09:20 38.750290 -118.671491 313 23735ft 412kts
08-Nov-20 09:22 38.847081 -118.792367 313 21740ft 407kts
08-Nov-20 09:22 38.913119 -118.874766 313 20253ft 385kts
08-Nov-20 09:23 38.989414 -118.970231 312 18553ft 381kts
08-Nov-20 09:24 39.063239 -119.062979 312 17280ft 353kts
08-Nov-20 09:25 39.129991 -119.147490 312 16282ft 331kts
08-Nov-20 09:26 39.195256 -119.229992 312 15992ft 331kts
08-Nov-20 09:27 39.261611 -119.313921 313 14943ft 334kts
08-Nov-20 09:28 39.326524 -119.396110 314 11983ft 309kts
08-Nov-20 09:29 39.384763 -119.459673 324 11147ft 258kts
08-Nov-20 09:30 39.443050 -119.513613 324 10019ft 242kts
08-Nov-20 09:31 39.490596 -119.558096 323 9988ft 196kts
08-Nov-20 09:32 39.535070 -119.599818 324 8992ft 192kts
08-Nov-20 09:33 39.579235 -119.641300 324 7979ft 198kts
08-Nov-20 09:34 39.611808 -119.694990 279 6562ft 193kts
08-Nov-20 09:35 39.592886 -119.755045 219 6200ft 171kts
08-Nov-20 09:36 39.550893 -119.766867 180 5532ft 156kts
08-Nov-20 09:37 39.508526 -119.766723 180 4426ft 129kts
08-Nov-20 09:38 39.497631 -119.767075 218 4425ft 20kts
08-Nov-20 09:39 39.498365 -119.771526 359 4425ft 7kts
08-Nov-20 09:40 39.500956 -119.771527 359 4425ft 11kts
08-Nov-20 09:41 39.503742 -119.772546 269 4425ft 7kts
08-Nov-20 09:42 39.504257 -119.774291 12 4425ft 3kts
08-Nov-20 09:43 39.504424 -119.774239 14 4425ft 0kts
08-Nov-20 09:44 39.504424 -119.774239 14 4425ft 0kts
08-Nov-20 09:45 39.504424 -119.774239 14 4425ft 0kts
08-Nov-20 09:46 39.504424 -119.774239 14 4425ft 0kts
08-Nov-20 09:47 39.504424 -119.774239 14 4425ft 0kts
08-Nov-20 09:48 39.504424 -119.774239 14 4425ft 0kts
08-Nov-20 09:49 39.504424 -119.774239 14 4425ft 0kts
08-Nov-20 09:50 39.504424 -119.774239 14 4425ft 0kts
08-Nov-20 09:51 39.504424 -119.774239 14 4425ft 0kts
08-Nov-20 09:52 39.504424 -119.774239 14 4425ft 0kts
08-Nov-20 09:53 39.504424 -119.774239 14 4425ft 0kts

Navigation Log

Ident Type
Flight plan parsing failed, navigation log unavailable